Rhodanus — PGBC — position and weather

sailwx.info

Track history (hours):
 
Tides and Currents Weather Stations Pressure Air Temp Water Temp Dewpoint Dewpoint Depression Visibility Wind Speed Wind Dir Waves Ship Positions

Rhodanus

Last reported at 2015-Jan-22 12:32 UTC. Time now 2015-Feb-01 11:45 UTC.
Position N 43°00' E 005°01'.
Warning: this ship's position is 9 days out of date.

Length 89 m; draft 4.5 m.

Type: Cargo ship. MMSI: 245848000.

Date/timePositionNaut miles runAvg speedWind from/ knotsBaromVisibWave heightAir tempDewpointWater temp
2015-Jan-22 12:32N 43°00' E 005°01'1212.5
2015-Jan-22 11:33N 43°13' E 005°00'6 5.8
2015-Jan-22 10:34N 43°18' E 004°59'8 7.6
2015-Jan-22 09:34N 43°23' E 004°51'2 1.8
2015-Jan-22 08:33N 43°23' E 004°49'21 1.2
2015-Jan-21 14:21N 43°42' E 004°37'8 0.2
2015-Jan-19 11:08N 43°34' E 004°41'5 7.7
2015-Jan-19 10:32N 43°30' E 004°44'7 7.4
2015-Jan-19 09:33N 43°23' E 004°48'2 2.4
2015-Jan-19 08:33N 43°23' E 004°51'8 8.0
2015-Jan-19 07:33N 43°19' E 004°60'9 8.7
2015-Jan-19 06:33N 43°11' E 005°06'74 6.7
2015-Jan-18 19:32N 42°58' E 006°45'8 8.2
2015-Jan-18 18:33N 43°03' E 006°54'1010.2
2015-Jan-18 17:33N 43°07' E 007°06'11 9.7
2015-Jan-18 16:28N 43°11' E 007°20'60 8.5
2015-Jan-18 09:28N 43°35' E 008°35'7 7.1
2015-Jan-18 08:33N 43°38' E 008°43'7 7.2
2015-Jan-18 07:33N 43°41' E 008°52'7 6.7
2015-Jan-18 06:33N 43°44' E 009°01'5 5.4
2015-Jan-18 05:33N 43°46' E 009°07'5 5.3
2015-Jan-18 04:33N 43°48' E 009°14'5 4.9
2015-Jan-18 03:33N 43°50' E 009°20'5 4.8
2015-Jan-18 02:33N 43°52' E 009°26'4 4.5
2015-Jan-18 01:33N 43°54' E 009°32'4 4.1
2015-Jan-18 00:33N 43°56' E 009°37'4 3.9
2015-Jan-17 23:33N 43°58' E 009°42'4 4.3
2015-Jan-17 22:33N 43°59' E 009°48'5 4.7
2015-Jan-17 21:33N 44°03' E 009°52'4 3.6
2015-Jan-17 20:31N 44°06' E 009°50'0 0.0
2015-Jan-17 19:31N 44°06' E 009°50'0 0.0
2015-Jan-17 18:31N 44°06' E 009°50'0 0.0
2015-Jan-17 17:31N 44°06' E 009°50'0 0.0
2015-Jan-17 16:31N 44°06' E 009°50'0 0.0
2015-Jan-17 15:31N 44°06' E 009°50'0 0.0
2015-Jan-17 14:31N 44°06' E 009°50'0 0.0
2015-Jan-17 13:31N 44°06' E 009°50'0 0.0
2015-Jan-17 12:31N 44°06' E 009°50'0 0.0
2015-Jan-17 11:31N 44°06' E 009°50'0 0.0
2015-Jan-17 10:31N 44°06' E 009°50'0 0.0
2015-Jan-17 09:31N 44°06' E 009°50'0 0.0
2015-Jan-17 08:31N 44°06' E 009°50'0 0.0
2015-Jan-17 07:25N 44°06' E 009°50'0 0.0
2015-Jan-17 06:31N 44°06' E 009°50'0 0.0
2015-Jan-17 05:28N 44°06' E 009°50'0 0.0
2015-Jan-17 04:31N 44°06' E 009°50'0 0.0
2015-Jan-17 03:31N 44°06' E 009°50'0 0.0
2015-Jan-17 02:31N 44°06' E 009°50'0 0.0
2015-Jan-17 01:31N 44°06' E 009°50'0 0.0
2015-Jan-17 00:31N 44°06' E 009°50'0 0.4
2015-Jan-16 23:33N 44°06' E 009°51'6 6.1
2015-Jan-16 22:34N 44°00' E 009°50'8 7.7
2015-Jan-16 21:33N 43°57' E 009°41'8 7.9
2015-Jan-16 20:33N 43°54' E 009°30'8 7.8
2015-Jan-16 19:34N 43°51' E 009°20'8 8.1
2015-Jan-16 18:34N 43°48' E 009°10'8 8.3
2015-Jan-16 17:33N 43°45' E 008°59'9 8.7
2015-Jan-16 16:33N 43°41' E 008°49'9 8.8
2015-Jan-16 15:33N 43°37' E 008°37'64 9.2
2015-Jan-16 08:33N 43°10' E 007°17'9 8.6
2015-Jan-16 07:27N 43°06' E 007°06'8 8.5
2015-Jan-16 06:33N 43°03' E 006°56'8 8.3
2015-Jan-16 05:33N 42°59' E 006°46'78 7.1
2015-Jan-15 18:32N 43°13' E 005°01'6 6.4
2015-Jan-15 17:34N 43°19' E 004°59'7 6.8
2015-Jan-15 16:34N 43°23' E 004°51'2 1.8
2015-Jan-15 15:33N 43°23' E 004°49'5 5.0
2015-Jan-15 14:33N 43°27' E 004°44'16 3.7
2015-Jan-15 10:18N 43°42' E 004°38'0 0.0
2015-Jan-15 06:10N 43°42' E 004°38'0 0.0
2015-Jan-15 04:10N 43°42' E 004°38'0 0.0
2015-Jan-15 03:29N 43°42' E 004°38'0 0.0
2015-Jan-15 02:33N 43°42' E 004°38'0 0.0
2015-Jan-15 01:28N 43°42' E 004°38'0 0.0
2015-Jan-15 00:27N 43°42' E 004°38'0 0.0
2015-Jan-14 20:33N 43°42' E 004°38'0 0.0
2015-Jan-14 19:28N 43°42' E 004°38'0 0.0
2015-Jan-14 17:10N 43°42' E 004°38'0 0.0
2015-Jan-14 16:23N 43°42' E 004°38'0 0.0
2015-Jan-14 15:24N 43°42' E 004°38'0 0.0
2015-Jan-14 13:08N 43°42' E 004°38'0 0.0
2015-Jan-14 10:10N 43°42' E 004°38'0 0.0
2015-Jan-14 04:10N 43°42' E 004°38'0 0.0
2015-Jan-14 02:11N 43°42' E 004°38'13 6.3
2015-Jan-14 00:11N 43°30' E 004°44'7 7.8
2015-Jan-13 23:14N 43°23' E 004°48'1 0.8
2015-Jan-13 22:33N 43°23' E 004°49'7 7.2
2015-Jan-13 21:33N 43°22' E 004°58'11 9.1
2015-Jan-13 20:24N 43°12' E 005°02'33 9.9
2015-Jan-13 17:04N 42°39' E 005°06'30 9.9
2015-Jan-13 14:03N 42°09' E 005°10'5 9.9
2015-Jan-13 13:32N 42°04' E 005°11'77 9.6
2015-Jan-13 05:33N 40°48' E 005°22'24 7.9
2015-Jan-13 02:30N 40°24' E 005°25'8 8.3
2015-Jan-13 01:29N 40°15' E 005°26'8 8.2
2015-Jan-13 00:33N 40°08' E 005°27'  
Track history (hours):
 
Tides and Currents Weather Stations Pressure Air Temp Water Temp Dewpoint Dewpoint Depression Visibility Wind Speed Wind Dir Waves Ship Positions

Rhodanus

Last reported at 2015-Jan-22 12:32 UTC. Time now 2015-Feb-01 11:45 UTC.
Position N 43°00' E 005°01'.
Warning: this ship's position is 9 days out of date.

Length 89 m; draft 4.5 m.

Type: Cargo ship. MMSI: 245848000.

Date/timePositionNaut miles runAvg speedWind from/ knotsBaromVisibWave heightAir tempDewpointWater temp
2015-Jan-22 12:32N 43°00' E 005°01'1212.5
2015-Jan-22 11:33N 43°13' E 005°00'6 5.8
2015-Jan-22 10:34N 43°18' E 004°59'8 7.6
2015-Jan-22 09:34N 43°23' E 004°51'2 1.8
2015-Jan-22 08:33N 43°23' E 004°49'21 1.2
2015-Jan-21 14:21N 43°42' E 004°37'8 0.2
2015-Jan-19 11:08N 43°34' E 004°41'5 7.7
2015-Jan-19 10:32N 43°30' E 004°44'7 7.4
2015-Jan-19 09:33N 43°23' E 004°48'2 2.4
2015-Jan-19 08:33N 43°23' E 004°51'8 8.0
2015-Jan-19 07:33N 43°19' E 004°60'9 8.7
2015-Jan-19 06:33N 43°11' E 005°06'74 6.7
2015-Jan-18 19:32N 42°58' E 006°45'8 8.2
2015-Jan-18 18:33N 43°03' E 006°54'1010.2
2015-Jan-18 17:33N 43°07' E 007°06'11 9.7
2015-Jan-18 16:28N 43°11' E 007°20'60 8.5
2015-Jan-18 09:28N 43°35' E 008°35'7 7.1
2015-Jan-18 08:33N 43°38' E 008°43'7 7.2
2015-Jan-18 07:33N 43°41' E 008°52'7 6.7
2015-Jan-18 06:33N 43°44' E 009°01'5 5.4
2015-Jan-18 05:33N 43°46' E 009°07'5 5.3
2015-Jan-18 04:33N 43°48' E 009°14'5 4.9
2015-Jan-18 03:33N 43°50' E 009°20'5 4.8
2015-Jan-18 02:33N 43°52' E 009°26'4 4.5
2015-Jan-18 01:33N 43°54' E 009°32'4 4.1
2015-Jan-18 00:33N 43°56' E 009°37'4 3.9
2015-Jan-17 23:33N 43°58' E 009°42'4 4.3
2015-Jan-17 22:33N 43°59' E 009°48'5 4.7
2015-Jan-17 21:33N 44°03' E 009°52'4 3.6
2015-Jan-17 20:31N 44°06' E 009°50'0 0.0
2015-Jan-17 19:31N 44°06' E 009°50'0 0.0
2015-Jan-17 18:31N 44°06' E 009°50'0 0.0
2015-Jan-17 17:31N 44°06' E 009°50'0 0.0
2015-Jan-17 16:31N 44°06' E 009°50'0 0.0
2015-Jan-17 15:31N 44°06' E 009°50'0 0.0
2015-Jan-17 14:31N 44°06' E 009°50'0 0.0
2015-Jan-17 13:31N 44°06' E 009°50'0 0.0
2015-Jan-17 12:31N 44°06' E 009°50'0 0.0
2015-Jan-17 11:31N 44°06' E 009°50'0 0.0
2015-Jan-17 10:31N 44°06' E 009°50'0 0.0
2015-Jan-17 09:31N 44°06' E 009°50'0 0.0
2015-Jan-17 08:31N 44°06' E 009°50'0 0.0
2015-Jan-17 07:25N 44°06' E 009°50'0 0.0
2015-Jan-17 06:31N 44°06' E 009°50'0 0.0
2015-Jan-17 05:28N 44°06' E 009°50'0 0.0
2015-Jan-17 04:31N 44°06' E 009°50'0 0.0
2015-Jan-17 03:31N 44°06' E 009°50'0 0.0
2015-Jan-17 02:31N 44°06' E 009°50'0 0.0
2015-Jan-17 01:31N 44°06' E 009°50'0 0.0
2015-Jan-17 00:31N 44°06' E 009°50'0 0.4
2015-Jan-16 23:33N 44°06' E 009°51'6 6.1
2015-Jan-16 22:34N 44°00' E 009°50'8 7.7
2015-Jan-16 21:33N 43°57' E 009°41'8 7.9
2015-Jan-16 20:33N 43°54' E 009°30'8 7.8
2015-Jan-16 19:34N 43°51' E 009°20'8 8.1
2015-Jan-16 18:34N 43°48' E 009°10'8 8.3
2015-Jan-16 17:33N 43°45' E 008°59'9 8.7
2015-Jan-16 16:33N 43°41' E 008°49'9 8.8
2015-Jan-16 15:33N 43°37' E 008°37'64 9.2
2015-Jan-16 08:33N 43°10' E 007°17'9 8.6
2015-Jan-16 07:27N 43°06' E 007°06'8 8.5
2015-Jan-16 06:33N 43°03' E 006°56'8 8.3
2015-Jan-16 05:33N 42°59' E 006°46'78 7.1
2015-Jan-15 18:32N 43°13' E 005°01'6 6.4
2015-Jan-15 17:34N 43°19' E 004°59'7 6.8
2015-Jan-15 16:34N 43°23' E 004°51'2 1.8
2015-Jan-15 15:33N 43°23' E 004°49'5 5.0
2015-Jan-15 14:33N 43°27' E 004°44'16 3.7
2015-Jan-15 10:18N 43°42' E 004°38'0 0.0
2015-Jan-15 06:10N 43°42' E 004°38'0 0.0
2015-Jan-15 04:10N 43°42' E 004°38'0 0.0
2015-Jan-15 03:29N 43°42' E 004°38'0 0.0
2015-Jan-15 02:33N 43°42' E 004°38'0 0.0
2015-Jan-15 01:28N 43°42' E 004°38'0 0.0
2015-Jan-15 00:27N 43°42' E 004°38'0 0.0
2015-Jan-14 20:33N 43°42' E 004°38'0 0.0
2015-Jan-14 19:28N 43°42' E 004°38'0 0.0
2015-Jan-14 17:10N 43°42' E 004°38'0 0.0
2015-Jan-14 16:23N 43°42' E 004°38'0 0.0
2015-Jan-14 15:24N 43°42' E 004°38'0 0.0
2015-Jan-14 13:08N 43°42' E 004°38'0 0.0
2015-Jan-14 10:10N 43°42' E 004°38'0 0.0
2015-Jan-14 04:10N 43°42' E 004°38'0 0.0
2015-Jan-14 02:11N 43°42' E 004°38'13 6.3
2015-Jan-14 00:11N 43°30' E 004°44'7 7.8
2015-Jan-13 23:14N 43°23' E 004°48'1 0.8
2015-Jan-13 22:33N 43°23' E 004°49'7 7.2
2015-Jan-13 21:33N 43°22' E 004°58'11 9.1
2015-Jan-13 20:24N 43°12' E 005°02'33 9.9
2015-Jan-13 17:04N 42°39' E 005°06'30 9.9
2015-Jan-13 14:03N 42°09' E 005°10'5 9.9
2015-Jan-13 13:32N 42°04' E 005°11'77 9.6
2015-Jan-13 05:33N 40°48' E 005°22'24 7.9
2015-Jan-13 02:30N 40°24' E 005°25'8 8.3
2015-Jan-13 01:29N 40°15' E 005°26'8 8.2
2015-Jan-13 00:33N 40°08' E 005°27'  

Dump ship's entire track history